Terminal Aerodrome Forecast
Issued by NWS Louisville, KY

Home | Current Version | Previous Version | Text Only | Print | Product List | Glossary On
Versions: 1 2 3 4 5 6 7 8 9 10 11 12 13 14 15 16 17 18 19 20 21 22 23 24 25 26 27 28
000
FTUS43 KLMK 210826 AAA
TAFLEX
TAF AMD
KLEX 210826Z 2108/2206 23005KT 6SM -RA OVC040
      TEMPO 2110/2114 5SM -RA BR OVC025
     FM211400 26009KT P6SM -SHRA OVC025
     FM211700 30012G18KT P6SM VCSH BKN035
     FM220000 29008KT P6SM SCT035=

USA.gov is the U.S. government's official web portal to all federal, state and local government web resources and services.